createdAt,value
2022-09-28T00:01:16.648Z,8.45
2022-09-28T00:03:44.803Z,3.00
2022-09-28T00:06:16.021Z,1.50
2022-09-28T00:08:43.297Z,1.80
2022-09-28T00:11:13.771Z,1.60
2022-09-28T00:13:41.315Z,1.60
2022-09-28T00:16:11.493Z,1.25
2022-09-28T00:18:39.194Z,1.40
2022-09-28T00:21:09.021Z,1.27
2022-09-28T00:23:39.032Z,1.17
2022-09-28T00:26:06.453Z,1.23
2022-09-28T00:28:33.780Z,1.20
2022-09-28T00:31:01.682Z,1.23
2022-09-28T00:33:28.793Z,1.20
2022-09-28T00:35:57.252Z,1.20
2022-09-28T00:38:27.678Z,1.25
2022-09-28T00:40:56.274Z,1.40
2022-09-28T00:43:24.265Z,1.08
2022-09-28T00:45:58.742Z,1.13
2022-09-28T00:48:29.338Z,1.00
2022-09-28T00:50:58.410Z,1.05
2022-09-28T00:53:29.663Z,1.27
2022-09-28T00:56:02.597Z,1.05
2022-09-28T00:58:32.484Z,1.10
2022-09-28T01:01:00.743Z,1.20
2022-09-28T01:03:29.445Z,1.20
2022-09-28T01:06:00.514Z,1.00
2022-09-28T01:08:29.903Z,1.20
2022-09-28T01:11:00.328Z,2.53
2022-09-28T01:13:28.801Z,1.58
2022-09-28T01:16:07.013Z,1.13
2022-09-28T01:18:43.359Z,1.25
2022-09-28T01:21:17.598Z,1.30
2022-09-28T01:24:22.229Z,1.27
2022-09-28T01:26:59.685Z,1.20
2022-09-28T01:29:39.682Z,1.00
2022-09-28T01:32:17.142Z,1.30
2022-09-28T01:34:53.192Z,0.90
2022-09-28T01:37:26.245Z,1.20
2022-09-28T01:39:57.288Z,1.20
2022-09-28T01:42:32.804Z,1.42
2022-09-28T01:45:06.429Z,1.10
2022-09-28T01:47:39.995Z,1.13
2022-09-28T01:50:13.294Z,1.10
2022-09-28T01:52:48.504Z,1.20
2022-09-28T01:55:23.986Z,1.25
2022-09-28T01:57:57.608Z,0.85
2022-09-28T02:00:26.417Z,0.90
2022-09-28T02:03:00.006Z,1.10
2022-09-28T02:05:31.015Z,0.90
2022-09-28T02:08:04.655Z,0.85
2022-09-28T02:10:38.650Z,1.20
2022-09-28T02:13:12.820Z,0.90
2022-09-28T02:15:46.081Z,0.93
2022-09-28T02:18:14.225Z,1.20
2022-09-28T02:20:45.278Z,0.90
2022-09-28T02:23:13.424Z,0.82
2022-09-28T02:25:45.766Z,0.85
2022-09-28T02:28:16.189Z,0.93
2022-09-28T02:30:45.262Z,1.20
2022-09-28T02:33:17.978Z,1.27
2022-09-28T02:35:45.446Z,0.93
2022-09-28T02:38:14.885Z,1.13
2022-09-28T02:40:46.916Z,1.25
2022-09-28T02:43:24.040Z,1.30
2022-09-28T02:46:02.192Z,0.98
2022-09-28T02:49:00.058Z,0.93
2022-09-28T02:51:38.681Z,1.02
2022-09-28T02:54:34.849Z,1.17
2022-09-28T02:57:23.343Z,1.00
2022-09-28T03:00:04.919Z,1.00
2022-09-28T03:02:39.214Z,1.02
2022-09-28T03:05:19.849Z,1.00
2022-09-28T03:07:58.013Z,1.00
2022-09-28T03:10:35.352Z,1.00
2022-09-28T03:13:04.288Z,0.98
2022-09-28T03:15:34.863Z,0.85
2022-09-28T03:18:03.072Z,1.20
2022-09-28T03:20:32.681Z,1.23
2022-09-28T03:23:23.282Z,1.65
2022-09-28T03:25:47.015Z,1.60
2022-09-28T03:28:14.591Z,1.98
2022-09-28T03:30:43.395Z,1.30
2022-09-28T03:33:10.629Z,1.17
2022-09-28T03:35:38.657Z,1.20
2022-09-28T03:38:05.948Z,1.10
2022-09-28T03:40:33.496Z,1.27
2022-09-28T03:43:03.215Z,1.38
2022-09-28T03:45:30.472Z,2.55
2022-09-28T03:47:59.092Z,2.20
2022-09-28T03:50:26.204Z,1.90
2022-09-28T03:52:53.608Z,1.88
2022-09-28T03:55:21.131Z,1.50
2022-09-28T03:57:54.067Z,1.20
2022-09-28T04:00:21.521Z,1.60
2022-09-28T04:02:48.515Z,1.00
2022-09-28T04:05:17.137Z,1.15
2022-09-28T04:07:44.071Z,1.10
2022-09-28T04:10:11.184Z,0.90
2022-09-28T04:12:38.625Z,1.23
2022-09-28T04:15:06.710Z,1.10
2022-09-28T04:17:39.205Z,1.60
2022-09-28T04:20:08.505Z,2.30
2022-09-28T04:22:37.913Z,4.95
2022-09-28T04:25:06.537Z,1.25
2022-09-28T04:27:34.231Z,1.20
2022-09-28T04:30:01.691Z,1.15
2022-09-28T04:32:28.993Z,1.13
2022-09-28T04:34:56.152Z,1.05
2022-09-28T04:37:23.490Z,1.33
2022-09-28T04:39:52.187Z,1.30
2022-09-28T04:42:19.712Z,1.27
2022-09-28T04:44:47.193Z,1.10
2022-09-28T04:47:15.363Z,0.98
2022-09-28T04:49:42.308Z,1.05
2022-09-28T04:52:12.540Z,1.20
2022-09-28T04:54:43.601Z,1.10
2022-09-28T04:57:13.751Z,0.90
2022-09-28T04:59:41.429Z,0.93
2022-09-28T05:02:08.517Z,1.13
2022-09-28T05:04:35.888Z,0.90
2022-09-28T05:07:02.801Z,1.20
2022-09-28T05:09:29.950Z,1.15
2022-09-28T05:11:56.963Z,0.88
2022-09-28T05:14:25.788Z,1.10
2022-09-28T05:16:53.020Z,1.15
2022-09-28T05:19:20.035Z,1.20
2022-09-28T05:21:47.889Z,1.10
2022-09-28T05:24:15.234Z,1.17
2022-09-28T05:26:42.716Z,1.05
2022-09-28T05:29:09.748Z,1.25
2022-09-28T05:31:38.217Z,1.30
2022-09-28T05:34:05.422Z,1.20
2022-09-28T05:36:32.367Z,1.30
2022-09-28T05:38:59.483Z,1.85
2022-09-28T05:41:26.571Z,1.92
2022-09-28T05:43:53.467Z,1.85
2022-09-28T05:46:20.872Z,2.10
2022-09-28T05:48:49.428Z,1.33
2022-09-28T05:51:16.635Z,1.02
2022-09-28T05:53:43.806Z,1.42
2022-09-28T05:56:11.429Z,1.85
2022-09-28T05:58:38.511Z,1.70
2022-09-28T06:01:05.819Z,1.73
2022-09-28T06:03:33.245Z,2.30
2022-09-28T06:06:02.471Z,1.90
2022-09-28T06:08:31.385Z,1.95
2022-09-28T06:11:00.053Z,1.90
2022-09-28T06:13:27.121Z,2.20
2022-09-28T06:15:54.582Z,1.73
2022-09-28T06:18:21.758Z,1.58
2022-09-28T06:20:48.986Z,1.30
2022-09-28T06:23:18.505Z,1.70
2022-09-28T06:25:45.768Z,1.73
2022-09-28T06:28:15.199Z,1.52
2022-09-28T06:30:44.723Z,1.40
2022-09-28T06:33:13.919Z,1.40
2022-09-28T06:35:41.090Z,1.40
2022-09-28T06:38:08.799Z,1.30
2022-09-28T06:40:37.843Z,1.65
2022-09-28T06:43:06.859Z,1.67
2022-09-28T06:45:34.593Z,1.88
2022-09-28T06:48:03.254Z,1.90
2022-09-28T06:50:32.410Z,2.05
2022-09-28T06:53:00.712Z,2.08
2022-09-28T06:55:29.138Z,2.00
2022-09-28T06:58:03.368Z,2.00
2022-09-28T07:00:33.444Z,2.00
2022-09-28T07:03:01.651Z,2.22
2022-09-28T07:05:29.266Z,1.80
2022-09-28T07:07:57.317Z,1.88
2022-09-28T07:10:26.437Z,2.38
2022-09-28T07:12:54.888Z,2.05
2022-09-28T07:15:25.649Z,2.30
2022-09-28T07:18:02.809Z,2.38
2022-09-28T07:20:31.835Z,2.15
2022-09-28T07:23:15.532Z,2.40
2022-09-28T07:25:46.446Z,2.03
2022-09-28T07:28:13.839Z,2.15
2022-09-28T07:30:42.488Z,1.77
2022-09-28T07:33:12.261Z,1.85
2022-09-28T07:35:39.654Z,2.17
2022-09-28T07:38:08.482Z,2.17
2022-09-28T07:40:36.714Z,2.08
2022-09-28T07:43:05.682Z,2.05
2022-09-28T07:45:33.204Z,2.17
2022-09-28T07:48:03.081Z,2.03
2022-09-28T07:50:30.261Z,2.22
2022-09-28T07:52:57.743Z,1.30
2022-09-28T07:55:25.559Z,1.80
2022-09-28T07:57:56.008Z,1.63
2022-09-28T08:00:23.328Z,1.98
2022-09-28T08:02:50.438Z,2.10
2022-09-28T08:05:19.503Z,1.67
2022-09-28T08:07:46.718Z,1.95
2022-09-28T08:10:14.553Z,1.52
2022-09-28T08:12:41.773Z,1.80
2022-09-28T08:15:09.389Z,2.78
2022-09-28T08:17:36.829Z,2.30
2022-09-28T08:20:05.321Z,2.08
2022-09-28T08:22:35.366Z,1.90
2022-09-28T08:25:02.550Z,2.08
2022-09-28T08:27:29.797Z,2.65
2022-09-28T08:29:57.279Z,2.78
2022-09-28T08:32:24.810Z,2.50
2022-09-28T08:34:52.305Z,2.70
2022-09-28T08:37:19.711Z,3.35
2022-09-28T08:39:48.639Z,3.10
2022-09-28T08:42:31.224Z,2.83
2022-09-28T08:45:07.367Z,3.70
2022-09-28T08:47:42.379Z,3.20
2022-09-28T08:50:18.084Z,2.87
2022-09-28T08:52:51.672Z,2.90
2022-09-28T08:55:29.118Z,2.97
2022-09-28T08:58:01.771Z,2.38
2022-09-28T09:00:34.433Z,2.30
2022-09-28T09:03:06.068Z,2.38
2022-09-28T09:05:53.890Z,2.70
2022-09-28T09:08:40.808Z,3.15
2022-09-28T09:11:24.080Z,2.70
2022-09-28T09:14:08.130Z,2.10
2022-09-28T09:16:47.882Z,2.15
2022-09-28T09:19:17.041Z,2.50
2022-09-28T09:21:52.009Z,2.60
2022-09-28T09:24:25.813Z,2.37
2022-09-28T09:27:05.019Z,2.50
2022-09-28T09:29:50.029Z,2.55
2022-09-28T09:32:43.777Z,2.17
2022-09-28T09:35:31.258Z,1.83
2022-09-28T09:38:13.746Z,1.75
2022-09-28T09:40:59.933Z,2.17
2022-09-28T09:43:58.995Z,2.17
2022-09-28T09:46:37.291Z,1.90
2022-09-28T09:49:11.468Z,2.15
2022-09-28T09:51:46.062Z,2.53
2022-09-28T09:54:21.633Z,2.15
2022-09-28T09:56:54.862Z,2.17
2022-09-28T09:59:31.946Z,2.20
2022-09-28T10:02:00.956Z,2.22
2022-09-28T10:04:32.901Z,2.22
2022-09-28T10:07:04.573Z,2.38
2022-09-28T10:09:36.083Z,2.40
2022-09-28T10:12:03.357Z,2.25
2022-09-28T10:14:33.702Z,2.38
2022-09-28T10:17:03.087Z,2.47
2022-09-28T10:19:33.493Z,2.40
2022-09-28T10:22:04.316Z,2.50
2022-09-28T10:24:36.342Z,2.17
2022-09-28T10:27:09.283Z,2.08
2022-09-28T10:29:46.122Z,2.28
2022-09-28T10:32:22.813Z,2.30
2022-09-28T10:34:51.842Z,2.20
2022-09-28T10:37:19.714Z,2.63
2022-09-28T10:39:50.582Z,2.40
2022-09-28T10:42:23.697Z,2.10
2022-09-28T10:44:56.306Z,2.47
2022-09-28T10:47:25.882Z,1.98
2022-09-28T10:49:54.735Z,2.20
2022-09-28T10:52:35.089Z,2.10
2022-09-28T10:55:04.802Z,1.90
2022-09-28T10:57:35.225Z,2.33
2022-09-28T11:00:06.336Z,2.40
2022-09-28T11:02:36.598Z,2.30
2022-09-28T11:05:07.285Z,2.55
2022-09-28T11:07:46.370Z,2.13
2022-09-28T11:10:22.361Z,2.30
2022-09-28T11:12:51.681Z,2.08
2022-09-28T11:15:24.697Z,1.98
2022-09-28T11:17:52.031Z,2.05
2022-09-28T11:20:34.456Z,2.17
2022-09-28T11:23:18.590Z,2.03
2022-09-28T11:25:58.400Z,1.98
2022-09-28T11:28:32.206Z,1.92
2022-09-28T11:31:02.709Z,2.60
2022-09-28T11:33:33.259Z,2.50
2022-09-28T11:36:11.650Z,2.42
2022-09-28T11:38:45.918Z,2.50
2022-09-28T11:41:33.065Z,2.35
2022-09-28T11:44:36.647Z,2.45
2022-09-28T11:47:45.052Z,2.30
2022-09-28T11:50:24.287Z,2.05
2022-09-28T11:53:03.327Z,1.92
2022-09-28T11:55:35.636Z,2.53
2022-09-28T11:58:09.764Z,2.10
2022-09-28T12:00:43.988Z,2.00
2022-09-28T12:03:17.129Z,2.70
2022-09-28T12:05:49.548Z,2.38
2022-09-28T12:08:21.895Z,2.35
2022-09-28T12:10:55.207Z,2.13
2022-09-28T12:13:26.689Z,2.40
2022-09-28T12:16:27.326Z,2.00
2022-09-28T12:18:53.519Z,2.17
2022-09-28T12:21:35.015Z,1.95
2022-09-28T12:24:10.979Z,2.20
2022-09-28T12:26:44.558Z,2.15
2022-09-28T12:29:15.637Z,2.10
2022-09-28T12:31:56.371Z,2.10
2022-09-28T12:34:25.791Z,1.70
2022-09-28T12:37:14.043Z,2.85
2022-09-28T12:39:58.637Z,1.95
2022-09-28T12:42:50.341Z,1.70
2022-09-28T12:46:11.101Z,2.47
2022-09-28T12:50:20.214Z,2.00
2022-09-28T12:51:53.787Z,1.83
2022-09-28T12:54:45.279Z,2.13
2022-09-28T12:57:34.957Z,1.98
2022-09-28T13:00:06.027Z,2.20
2022-09-28T13:03:03.854Z,2.40
2022-09-28T13:06:04.871Z,2.60
2022-09-28T13:08:44.955Z,2.42
2022-09-28T13:11:21.541Z,2.47
2022-09-28T13:13:56.153Z,2.40
2022-09-28T13:16:33.519Z,2.20
2022-09-28T13:19:13.093Z,2.25
2022-09-28T13:21:47.093Z,2.28
2022-09-28T13:24:32.630Z,2.28
2022-09-28T13:27:05.103Z,2.13
2022-09-28T13:29:32.680Z,2.03
2022-09-28T13:32:02.036Z,2.22
2022-09-28T13:34:34.046Z,2.17
2022-09-28T13:37:21.447Z,2.20
2022-09-28T13:39:51.826Z,2.15
2022-09-28T13:42:41.417Z,2.20
2022-09-28T13:45:46.742Z,2.10
2022-09-28T13:48:17.759Z,2.33
2022-09-28T13:51:13.487Z,2.40
2022-09-28T13:53:57.012Z,2.22
2022-09-28T13:56:37.609Z,2.10
2022-09-28T13:59:16.037Z,1.80
2022-09-28T14:01:48.071Z,1.35
2022-09-28T14:04:19.427Z,1.95
2022-09-28T14:06:53.568Z,1.30
2022-09-28T14:09:42.363Z,1.40
2022-09-28T14:12:45.350Z,1.35
2022-09-28T14:15:43.011Z,1.63
2022-09-28T14:18:22.833Z,1.98
2022-09-28T14:21:00.671Z,1.52
2022-09-28T14:23:56.353Z,1.50
2022-09-28T14:26:52.680Z,1.20
2022-09-28T14:29:28.180Z,1.40
2022-09-28T14:31:56.767Z,1.40
2022-09-28T14:34:30.628Z,1.55
2022-09-28T14:36:58.134Z,2.08
2022-09-28T14:39:29.065Z,1.70
2022-09-28T14:41:56.627Z,1.83
2022-09-28T14:44:25.444Z,1.35
2022-09-28T14:47:26.533Z,1.50
2022-09-28T14:50:03.030Z,1.30
2022-09-28T14:52:43.719Z,1.50
2022-09-28T14:55:18.222Z,1.48
2022-09-28T14:57:53.060Z,1.50
2022-09-28T15:00:24.397Z,1.42
2022-09-28T15:02:54.317Z,2.00
2022-09-28T15:05:24.487Z,1.48
2022-09-28T15:07:54.101Z,1.50
2022-09-28T15:10:31.764Z,1.63
2022-09-28T15:13:00.616Z,1.48
2022-09-28T15:15:34.313Z,1.55
2022-09-28T15:18:17.240Z,1.63
2022-09-28T15:20:47.848Z,1.60
2022-09-28T15:23:27.013Z,1.25
2022-09-28T15:25:55.708Z,1.60
2022-09-28T15:28:25.160Z,1.55
2022-09-28T15:31:00.454Z,1.45
2022-09-28T15:33:29.800Z,1.80
2022-09-28T15:36:02.747Z,1.65
2022-09-28T15:38:31.542Z,1.67
2022-09-28T15:40:59.174Z,1.80
2022-09-28T15:43:28.037Z,1.48
2022-09-28T15:46:07.046Z,1.77
2022-09-28T15:48:41.358Z,1.73
2022-09-28T15:51:10.270Z,1.52
2022-09-28T15:53:42.374Z,1.92
2022-09-28T15:56:11.393Z,1.75
2022-09-28T15:58:39.416Z,2.25
2022-09-28T16:01:32.374Z,1.77
2022-09-28T16:03:59.789Z,1.60
2022-09-28T16:06:27.015Z,1.90
2022-09-28T16:08:54.198Z,1.85
2022-09-28T16:11:25.684Z,1.90
2022-09-28T16:13:59.183Z,1.80
2022-09-28T16:16:31.438Z,2.00
2022-09-28T16:19:01.537Z,1.73
2022-09-28T16:21:40.022Z,1.63
2022-09-28T16:24:13.971Z,2.38
2022-09-28T16:26:41.350Z,2.38
2022-09-28T16:29:24.452Z,3.28
2022-09-28T16:31:55.903Z,3.00
2022-09-28T16:34:26.140Z,3.03
2022-09-28T16:36:53.909Z,2.80
2022-09-28T16:39:21.244Z,2.72
2022-09-28T16:41:51.766Z,3.38
2022-09-28T16:44:25.495Z,3.25
2022-09-28T16:46:57.145Z,4.18
2022-09-28T16:49:25.491Z,3.60
2022-09-28T16:51:52.992Z,3.80
2022-09-28T16:54:22.182Z,3.17
2022-09-28T16:56:49.267Z,3.10
2022-09-28T16:59:16.562Z,2.85
2022-09-28T17:01:43.982Z,3.03
2022-09-28T17:04:12.974Z,2.55
2022-09-28T17:06:40.528Z,2.10
2022-09-28T17:09:12.178Z,2.33
2022-09-28T17:11:39.379Z,2.20
2022-09-28T17:14:06.278Z,1.90
2022-09-28T17:19:24.499Z,2.15
2022-09-28T17:21:52.955Z,2.28
2022-09-28T17:24:20.782Z,2.70
2022-09-28T17:26:50.162Z,2.38
2022-09-28T17:29:17.660Z,2.08
2022-09-28T17:31:46.418Z,2.80
2022-09-28T17:34:16.977Z,2.70
2022-09-28T17:36:47.070Z,2.97
2022-09-28T17:39:16.768Z,2.90
2022-09-28T17:41:44.030Z,3.10
2022-09-28T17:44:11.370Z,3.50
2022-09-28T17:46:42.711Z,3.22
2022-09-28T17:49:11.933Z,3.03
2022-09-28T17:51:39.469Z,4.00
2022-09-28T17:54:08.572Z,4.82
2022-09-28T17:56:36.841Z,4.38
2022-09-28T17:59:07.362Z,3.63
2022-09-28T18:01:38.054Z,3.28
2022-09-28T18:04:07.323Z,3.15
2022-09-28T18:06:35.700Z,3.08
2022-09-28T18:09:03.925Z,4.15
2022-09-28T18:11:33.682Z,4.38
2022-09-28T18:14:01.295Z,5.15
2022-09-28T18:16:29.413Z,3.85
2022-09-28T18:18:57.138Z,3.22
2022-09-28T18:21:24.852Z,2.90
2022-09-28T18:23:52.735Z,2.65
2022-09-28T18:26:19.911Z,2.65
2022-09-28T18:28:49.131Z,2.90
2022-09-28T18:31:16.604Z,2.80
2022-09-28T18:33:53.781Z,3.50
2022-09-28T18:36:21.564Z,3.13
2022-09-28T18:38:48.832Z,2.95
2022-09-28T18:41:16.208Z,2.80
2022-09-28T18:43:44.267Z,2.78
2022-09-28T18:46:14.005Z,2.38
2022-09-28T18:48:44.621Z,2.83
2022-09-28T18:51:13.156Z,2.80
2022-09-28T18:53:41.096Z,2.70
2022-09-28T18:56:10.214Z,3.03
2022-09-28T18:58:39.544Z,2.92
2022-09-28T19:01:28.565Z,3.20
2022-09-28T19:03:59.244Z,3.50
2022-09-28T19:06:26.922Z,3.47
2022-09-28T19:08:55.405Z,5.45
2022-09-28T19:11:23.720Z,4.50
2022-09-28T19:13:53.520Z,6.57
2022-09-28T19:16:23.208Z,4.93
2022-09-28T19:18:51.677Z,4.65
2022-09-28T19:21:21.781Z,4.32
2022-09-28T19:23:50.175Z,3.95
2022-09-28T19:26:21.250Z,3.42
2022-09-28T19:28:49.305Z,3.17
2022-09-28T19:31:17.295Z,3.60
2022-09-28T19:33:45.125Z,3.45
2022-09-28T19:36:15.422Z,4.10
2022-09-28T19:38:44.626Z,3.22
2022-09-28T19:41:13.098Z,3.03
2022-09-28T19:43:40.309Z,3.40
2022-09-28T19:46:07.660Z,3.70
2022-09-28T19:48:35.428Z,3.45
2022-09-28T19:51:06.415Z,3.53
2022-09-28T19:53:34.997Z,3.75
2022-09-28T19:56:04.862Z,3.80
2022-09-28T19:58:34.129Z,3.60
2022-09-28T20:01:05.147Z,3.42
2022-09-28T20:03:32.501Z,3.42
2022-09-28T20:06:00.793Z,3.45
2022-09-28T20:08:29.237Z,3.40
2022-09-28T20:10:57.692Z,3.42
2022-09-28T20:13:31.355Z,3.63
2022-09-28T20:16:04.379Z,3.85
2022-09-28T20:18:34.592Z,3.65
2022-09-28T20:21:02.902Z,3.50
2022-09-28T20:23:30.390Z,2.75
2022-09-28T20:25:57.613Z,3.55
2022-09-28T20:28:26.694Z,3.97
2022-09-28T20:30:54.099Z,3.13
2022-09-28T20:33:28.569Z,3.80
2022-09-28T20:35:56.803Z,3.70
2022-09-28T20:38:24.196Z,3.85
2022-09-28T20:40:52.135Z,3.90
2022-09-28T20:43:19.819Z,3.42
2022-09-28T20:45:50.664Z,3.33
2022-09-28T20:48:18.095Z,4.13
2022-09-28T20:50:47.249Z,3.67
2022-09-28T20:53:15.067Z,3.60
2022-09-28T20:55:42.948Z,3.67
2022-09-28T20:58:10.677Z,3.60
2022-09-28T21:00:37.934Z,3.65
2022-09-28T21:03:10.098Z,3.85
2022-09-28T21:05:37.762Z,3.55
2022-09-28T21:08:05.288Z,3.67
2022-09-28T21:10:32.833Z,3.58
2022-09-28T21:13:00.231Z,3.33
2022-09-28T21:15:27.561Z,3.72
2022-09-28T21:17:55.090Z,3.70
2022-09-28T21:20:24.911Z,3.88
2022-09-28T21:22:52.669Z,3.28
2022-09-28T21:25:20.465Z,3.50
2022-09-28T21:27:48.008Z,3.70
2022-09-28T21:30:15.505Z,3.83
2022-09-28T21:32:42.664Z,4.35
2022-09-28T21:35:10.611Z,5.15
2022-09-28T21:37:40.637Z,4.43
2022-09-28T21:40:09.491Z,4.50
2022-09-28T21:42:36.631Z,4.20
2022-09-28T21:45:04.958Z,3.28
2022-09-28T21:47:32.026Z,3.15
2022-09-28T21:49:59.811Z,3.42
2022-09-28T21:52:27.973Z,3.60
2022-09-28T21:54:56.591Z,3.25
2022-09-28T21:57:24.227Z,3.67
2022-09-28T21:59:51.256Z,3.50
2022-09-28T22:02:19.891Z,3.28
2022-09-28T22:04:47.523Z,3.50
2022-09-28T22:07:15.070Z,3.10
2022-09-28T22:09:42.498Z,3.65
2022-09-28T22:12:11.688Z,3.20
2022-09-28T22:14:39.852Z,3.38
2022-09-28T22:17:07.658Z,3.47
2022-09-28T22:19:34.745Z,3.17
2022-09-28T22:22:02.562Z,3.75
2022-09-28T22:24:30.445Z,3.00
2022-09-28T22:26:57.756Z,3.22
2022-09-28T22:29:26.886Z,3.38
2022-09-28T22:31:54.112Z,3.40
2022-09-28T22:34:21.145Z,3.08
2022-09-28T22:36:48.501Z,3.50
2022-09-28T22:39:15.491Z,3.83
2022-09-28T22:41:42.727Z,3.40
2022-09-28T22:44:09.753Z,3.42
2022-09-28T22:46:38.701Z,3.72
2022-09-28T22:49:06.381Z,3.80
2022-09-28T22:51:33.289Z,3.53
2022-09-28T22:54:00.580Z,3.30
2022-09-28T22:56:28.348Z,3.65
2022-09-28T22:58:55.852Z,3.53
2022-09-28T23:01:25.002Z,3.50
2022-09-28T23:03:55.759Z,3.58
2022-09-28T23:06:25.470Z,3.25
2022-09-28T23:08:53.922Z,3.28
2022-09-28T23:11:21.569Z,3.45
2022-09-28T23:13:49.829Z,3.78
2022-09-28T23:16:17.037Z,3.70
2022-09-28T23:18:44.342Z,3.10
2022-09-28T23:21:15.019Z,3.60
2022-09-28T23:23:42.198Z,3.75
2022-09-28T23:26:16.481Z,3.90
2022-09-28T23:28:44.672Z,3.33
2022-09-28T23:31:15.392Z,3.50
2022-09-28T23:33:42.864Z,3.15
2022-09-28T23:36:10.383Z,3.40
2022-09-28T23:38:39.254Z,3.42
2022-09-28T23:41:07.028Z,3.60
2022-09-28T23:43:35.154Z,3.00
2022-09-28T23:46:02.589Z,3.47
2022-09-28T23:48:30.125Z,3.85
2022-09-28T23:50:57.416Z,3.58
2022-09-28T23:53:25.370Z,3.42
2022-09-28T23:55:55.033Z,3.47
2022-09-28T23:58:23.377Z,3.55
